sensor_id;sensor_type;location;lat;lon;timestamp;P1;durP1;ratioP1;P2;durP2;ratioP2
76733;SDS011;65660;53.288;14.666;2023-03-31T00:00:16;10.23;;;5.10;;
76733;SDS011;65660;53.288;14.666;2023-03-31T00:05:38;7.23;;;4.43;;
76733;SDS011;65660;53.288;14.666;2023-03-31T00:10:43;7.83;;;4.50;;
76733;SDS011;65660;53.288;14.666;2023-03-31T00:15:45;10.00;;;4.63;;
76733;SDS011;65660;53.288;14.666;2023-03-31T00:20:46;9.63;;;4.80;;
76733;SDS011;65660;53.288;14.666;2023-03-31T00:25:47;8.17;;;4.03;;
76733;SDS011;65660;53.288;14.666;2023-03-31T00:30:48;7.43;;;4.73;;
76733;SDS011;65660;53.288;14.666;2023-03-31T00:35:52;7.10;;;4.57;;
76733;SDS011;65660;53.288;14.666;2023-03-31T00:40:53;6.53;;;3.80;;
76733;SDS011;65660;53.288;14.666;2023-03-31T00:46:01;6.87;;;4.07;;
76733;SDS011;65660;53.288;14.666;2023-03-31T00:51:09;6.67;;;4.10;;
76733;SDS011;65660;53.288;14.666;2023-03-31T00:56:13;6.23;;;3.50;;
76733;SDS011;65660;53.288;14.666;2023-03-31T01:01:18;7.47;;;4.60;;
76733;SDS011;65660;53.288;14.666;2023-03-31T01:06:21;7.07;;;3.87;;
76733;SDS011;65660;53.288;14.666;2023-03-31T01:11:22;8.40;;;4.03;;
76733;SDS011;65660;53.288;14.666;2023-03-31T01:16:24;5.93;;;4.10;;
76733;SDS011;65660;53.288;14.666;2023-03-31T01:21:41;8.07;;;4.30;;
76733;SDS011;65660;53.288;14.666;2023-03-31T01:27:06;6.77;;;4.43;;
76733;SDS011;65660;53.288;14.666;2023-03-31T01:38:13;11.07;;;4.23;;
76733;SDS011;65660;53.288;14.666;2023-03-31T01:43:28;6.70;;;4.53;;
76733;SDS011;65660;53.288;14.666;2023-03-31T01:48:44;10.47;;;5.37;;
76733;SDS011;65660;53.288;14.666;2023-03-31T02:04:06;10.97;;;5.30;;
76733;SDS011;65660;53.288;14.666;2023-03-31T02:09:10;11.30;;;5.27;;
76733;SDS011;65660;53.288;14.666;2023-03-31T02:14:17;10.13;;;4.70;;
76733;SDS011;65660;53.288;14.666;2023-03-31T02:19:20;9.20;;;5.00;;
76733;SDS011;65660;53.288;14.666;2023-03-31T02:24:22;8.67;;;4.67;;
76733;SDS011;65660;53.288;14.666;2023-03-31T02:29:24;11.07;;;5.70;;
76733;SDS011;65660;53.288;14.666;2023-03-31T02:34:25;13.13;;;5.77;;
76733;SDS011;65660;53.288;14.666;2023-03-31T02:39:28;8.57;;;5.20;;
76733;SDS011;65660;53.288;14.666;2023-03-31T02:44:36;9.03;;;5.33;;
76733;SDS011;65660;53.288;14.666;2023-03-31T02:49:39;9.43;;;5.00;;
76733;SDS011;65660;53.288;14.666;2023-03-31T02:54:47;9.40;;;4.60;;
76733;SDS011;65660;53.288;14.666;2023-03-31T03:00:42;8.97;;;4.70;;
76733;SDS011;65660;53.288;14.666;2023-03-31T03:11:03;7.70;;;5.10;;
76733;SDS011;65660;53.288;14.666;2023-03-31T03:16:12;12.03;;;5.60;;
76733;SDS011;65660;53.288;14.666;2023-03-31T03:21:17;9.50;;;5.50;;
76733;SDS011;65660;53.288;14.666;2023-03-31T03:26:18;9.70;;;5.33;;
76733;SDS011;65660;53.288;14.666;2023-03-31T03:31:19;9.23;;;5.23;;
76733;SDS011;65660;53.288;14.666;2023-03-31T03:36:20;11.37;;;5.80;;
76733;SDS011;65660;53.288;14.666;2023-03-31T03:41:21;8.80;;;5.60;;
76733;SDS011;65660;53.288;14.666;2023-03-31T03:46:22;10.17;;;6.17;;
76733;SDS011;65660;53.288;14.666;2023-03-31T03:51:23;13.13;;;6.20;;
76733;SDS011;65660;53.288;14.666;2023-03-31T03:56:23;9.83;;;5.73;;
76733;SDS011;65660;53.288;14.666;2023-03-31T04:01:24;11.67;;;5.33;;
76733;SDS011;65660;53.288;14.666;2023-03-31T04:06:24;11.90;;;5.03;;
76733;SDS011;65660;53.288;14.666;2023-03-31T04:11:25;11.47;;;6.23;;
76733;SDS011;65660;53.288;14.666;2023-03-31T04:16:26;10.80;;;5.10;;
76733;SDS011;65660;53.288;14.666;2023-03-31T04:21:27;12.23;;;5.33;;
76733;SDS011;65660;53.288;14.666;2023-03-31T04:26:28;8.53;;;4.57;;
76733;SDS011;65660;53.288;14.666;2023-03-31T04:31:30;10.43;;;4.73;;
76733;SDS011;65660;53.288;14.666;2023-03-31T04:36:32;12.10;;;5.43;;
76733;SDS011;65660;53.288;14.666;2023-03-31T04:41:33;9.17;;;4.17;;
76733;SDS011;65660;53.288;14.666;2023-03-31T04:46:35;9.33;;;4.97;;
76733;SDS011;65660;53.288;14.666;2023-03-31T04:51:35;9.30;;;5.90;;
76733;SDS011;65660;53.288;14.666;2023-03-31T04:56:36;7.33;;;3.50;;
76733;SDS011;65660;53.288;14.666;2023-03-31T05:01:37;6.93;;;4.10;;
76733;SDS011;65660;53.288;14.666;2023-03-31T05:06:38;6.00;;;3.83;;
76733;SDS011;65660;53.288;14.666;2023-03-31T05:11:38;7.03;;;4.03;;
76733;SDS011;65660;53.288;14.666;2023-03-31T05:16:39;6.93;;;4.00;;
76733;SDS011;65660;53.288;14.666;2023-03-31T05:21:40;7.17;;;4.20;;
76733;SDS011;65660;53.288;14.666;2023-03-31T05:26:41;6.87;;;4.20;;
76733;SDS011;65660;53.288;14.666;2023-03-31T05:31:41;19.93;;;7.70;;
76733;SDS011;65660;53.288;14.666;2023-03-31T05:36:42;6.77;;;4.40;;
76733;SDS011;65660;53.288;14.666;2023-03-31T05:41:43;6.70;;;4.27;;
76733;SDS011;65660;53.288;14.666;2023-03-31T05:46:43;8.20;;;5.30;;
76733;SDS011;65660;53.288;14.666;2023-03-31T05:51:44;9.57;;;4.93;;
76733;SDS011;65660;53.288;14.666;2023-03-31T05:56:45;9.00;;;4.87;;
76733;SDS011;65660;53.288;14.666;2023-03-31T06:01:45;10.30;;;4.60;;
76733;SDS011;65660;53.288;14.666;2023-03-31T06:06:46;9.10;;;4.70;;
76733;SDS011;65660;53.288;14.666;2023-03-31T06:11:47;7.53;;;4.80;;
76733;SDS011;65660;53.288;14.666;2023-03-31T06:16:48;8.97;;;4.90;;
76733;SDS011;65660;53.288;14.666;2023-03-31T06:21:48;13.93;;;5.50;;
76733;SDS011;65660;53.288;14.666;2023-03-31T06:26:49;10.27;;;5.50;;
76733;SDS011;65660;53.288;14.666;2023-03-31T06:31:50;8.27;;;5.10;;
76733;SDS011;65660;53.288;14.666;2023-03-31T06:36:50;9.53;;;4.87;;
76733;SDS011;65660;53.288;14.666;2023-03-31T06:41:51;10.13;;;4.60;;
76733;SDS011;65660;53.288;14.666;2023-03-31T06:46:52;9.63;;;4.03;;
76733;SDS011;65660;53.288;14.666;2023-03-31T06:51:52;9.10;;;4.60;;
76733;SDS011;65660;53.288;14.666;2023-03-31T06:56:53;6.03;;;4.30;;
76733;SDS011;65660;53.288;14.666;2023-03-31T07:01:53;10.87;;;4.70;;
76733;SDS011;65660;53.288;14.666;2023-03-31T07:06:54;10.47;;;5.13;;
76733;SDS011;65660;53.288;14.666;2023-03-31T07:11:55;7.97;;;4.50;;
76733;SDS011;65660;53.288;14.666;2023-03-31T07:16:55;6.40;;;4.20;;
76733;SDS011;65660;53.288;14.666;2023-03-31T07:21:56;8.30;;;4.10;;
76733;SDS011;65660;53.288;14.666;2023-03-31T07:26:57;11.93;;;4.00;;
76733;SDS011;65660;53.288;14.666;2023-03-31T07:31:57;9.53;;;4.73;;
76733;SDS011;65660;53.288;14.666;2023-03-31T07:36:58;8.40;;;3.90;;
76733;SDS011;65660;53.288;14.666;2023-03-31T07:41:59;9.17;;;4.27;;
76733;SDS011;65660;53.288;14.666;2023-03-31T07:46:59;10.53;;;4.40;;
76733;SDS011;65660;53.288;14.666;2023-03-31T07:52:00;5.17;;;3.37;;
76733;SDS011;65660;53.288;14.666;2023-03-31T07:57:01;8.63;;;3.80;;
76733;SDS011;65660;53.288;14.666;2023-03-31T08:02:02;8.47;;;3.60;;
76733;SDS011;65660;53.288;14.666;2023-03-31T08:07:02;7.57;;;3.43;;
76733;SDS011;65660;53.288;14.666;2023-03-31T08:12:04;5.97;;;3.10;;
76733;SDS011;65660;53.288;14.666;2023-03-31T08:17:05;6.53;;;3.53;;
76733;SDS011;65660;53.288;14.666;2023-03-31T08:22:06;5.55;;;3.22;;
76733;SDS011;65660;53.288;14.666;2023-03-31T08:27:06;5.77;;;3.57;;
76733;SDS011;65660;53.288;14.666;2023-03-31T08:32:07;7.55;;;3.63;;
76733;SDS011;65660;53.288;14.666;2023-03-31T08:37:08;7.95;;;3.90;;
76733;SDS011;65660;53.288;14.666;2023-03-31T08:42:43;7.18;;;4.70;;
76733;SDS011;65660;53.288;14.666;2023-03-31T08:47:38;5.10;;;3.90;;
76733;SDS011;65660;53.288;14.666;2023-03-31T08:52:41;8.27;;;3.80;;
76733;SDS011;65660;53.288;14.666;2023-03-31T09:13:38;11.10;;;4.40;;
76733;SDS011;65660;53.288;14.666;2023-03-31T09:18:41;7.68;;;4.20;;
76733;SDS011;65660;53.288;14.666;2023-03-31T09:23:48;8.07;;;4.50;;
76733;SDS011;65660;53.288;14.666;2023-03-31T09:28:53;9.07;;;5.03;;
76733;SDS011;65660;53.288;14.666;2023-03-31T09:33:59;7.72;;;6.28;;
76733;SDS011;65660;53.288;14.666;2023-03-31T09:39:01;8.00;;;4.93;;
76733;SDS011;65660;53.288;14.666;2023-03-31T09:44:01;11.25;;;5.60;;
76733;SDS011;65660;53.288;14.666;2023-03-31T09:54:26;12.63;;;6.28;;
76733;SDS011;65660;53.288;14.666;2023-03-31T09:59:32;9.48;;;5.45;;
76733;SDS011;65660;53.288;14.666;2023-03-31T10:04:34;9.15;;;5.75;;
76733;SDS011;65660;53.288;14.666;2023-03-31T10:09:35;10.40;;;5.70;;
76733;SDS011;65660;53.288;14.666;2023-03-31T10:14:43;11.93;;;5.78;;
76733;SDS011;65660;53.288;14.666;2023-03-31T10:19:47;10.23;;;5.40;;
76733;SDS011;65660;53.288;14.666;2023-03-31T10:24:51;10.88;;;6.18;;
76733;SDS011;65660;53.288;14.666;2023-03-31T10:29:56;10.88;;;6.68;;
76733;SDS011;65660;53.288;14.666;2023-03-31T10:35:05;13.00;;;7.15;;
76733;SDS011;65660;53.288;14.666;2023-03-31T10:40:15;9.98;;;5.85;;
76733;SDS011;65660;53.288;14.666;2023-03-31T10:50:26;14.18;;;6.22;;
76733;SDS011;65660;53.288;14.666;2023-03-31T10:55:36;8.43;;;6.63;;
76733;SDS011;65660;53.288;14.666;2023-03-31T11:06:43;7.38;;;3.33;;
76733;SDS011;65660;53.288;14.666;2023-03-31T11:17:33;6.32;;;3.20;;
76733;SDS011;65660;53.288;14.666;2023-03-31T11:22:50;7.25;;;2.90;;
76733;SDS011;65660;53.288;14.666;2023-03-31T11:44:07;5.82;;;4.40;;
76733;SDS011;65660;53.288;14.666;2023-03-31T11:54:15;8.88;;;3.90;;
76733;SDS011;65660;53.288;14.666;2023-03-31T11:59:18;10.40;;;4.38;;
76733;SDS011;65660;53.288;14.666;2023-03-31T12:04:29;6.70;;;4.18;;
76733;SDS011;65660;53.288;14.666;2023-03-31T12:14:55;7.65;;;3.17;;
76733;SDS011;65660;53.288;14.666;2023-03-31T12:25:47;5.85;;;3.03;;
76733;SDS011;65660;53.288;14.666;2023-03-31T12:30:51;7.25;;;2.60;;
76733;SDS011;65660;53.288;14.666;2023-03-31T12:41:19;9.68;;;3.92;;
76733;SDS011;65660;53.288;14.666;2023-03-31T12:47:02;7.60;;;4.53;;
76733;SDS011;65660;53.288;14.666;2023-03-31T12:52:06;9.57;;;4.15;;
76733;SDS011;65660;53.288;14.666;2023-03-31T12:57:12;5.65;;;2.97;;
76733;SDS011;65660;53.288;14.666;2023-03-31T13:02:24;6.43;;;3.42;;
76733;SDS011;65660;53.288;14.666;2023-03-31T13:12:27;5.32;;;4.30;;
76733;SDS011;65660;53.288;14.666;2023-03-31T13:17:34;5.72;;;2.95;;
76733;SDS011;65660;53.288;14.666;2023-03-31T13:22:36;6.45;;;3.38;;
76733;SDS011;65660;53.288;14.666;2023-03-31T13:27:37;6.22;;;3.20;;
76733;SDS011;65660;53.288;14.666;2023-03-31T13:33:00;5.57;;;2.72;;
76733;SDS011;65660;53.288;14.666;2023-03-31T13:38:36;6.13;;;3.85;;
76733;SDS011;65660;53.288;14.666;2023-03-31T13:43:55;7.50;;;4.15;;
76733;SDS011;65660;53.288;14.666;2023-03-31T14:16:36;5.03;;;2.20;;
76733;SDS011;65660;53.288;14.666;2023-03-31T14:26:46;3.60;;;2.25;;
76733;SDS011;65660;53.288;14.666;2023-03-31T14:37:03;3.85;;;2.40;;
76733;SDS011;65660;53.288;14.666;2023-03-31T14:42:10;5.97;;;2.33;;
76733;SDS011;65660;53.288;14.666;2023-03-31T14:47:25;2.38;;;2.13;;
76733;SDS011;65660;53.288;14.666;2023-03-31T14:52:30;2.60;;;2.40;;
76733;SDS011;65660;53.288;14.666;2023-03-31T14:57:32;3.30;;;2.25;;
76733;SDS011;65660;53.288;14.666;2023-03-31T15:02:41;2.85;;;2.60;;
76733;SDS011;65660;53.288;14.666;2023-03-31T15:07:42;2.60;;;2.40;;
76733;SDS011;65660;53.288;14.666;2023-03-31T15:12:43;5.90;;;2.08;;
76733;SDS011;65660;53.288;14.666;2023-03-31T15:17:44;3.63;;;2.00;;
76733;SDS011;65660;53.288;14.666;2023-03-31T15:22:47;5.13;;;2.00;;
76733;SDS011;65660;53.288;14.666;2023-03-31T15:27:52;3.58;;;1.90;;
76733;SDS011;65660;53.288;14.666;2023-03-31T15:32:59;3.30;;;1.95;;
76733;SDS011;65660;53.288;14.666;2023-03-31T15:38:04;2.83;;;2.00;;
76733;SDS011;65660;53.288;14.666;2023-03-31T15:43:16;2.42;;;2.22;;
76733;SDS011;65660;53.288;14.666;2023-03-31T15:53:31;3.90;;;2.58;;
76733;SDS011;65660;53.288;14.666;2023-03-31T15:58:53;4.00;;;2.70;;
76733;SDS011;65660;53.288;14.666;2023-03-31T16:03:53;3.75;;;2.58;;
76733;SDS011;65660;53.288;14.666;2023-03-31T16:09:01;4.40;;;3.03;;
76733;SDS011;65660;53.288;14.666;2023-03-31T16:14:09;6.68;;;3.33;;
76733;SDS011;65660;53.288;14.666;2023-03-31T16:19:19;3.90;;;2.80;;
76733;SDS011;65660;53.288;14.666;2023-03-31T16:24:27;3.40;;;3.10;;
76733;SDS011;65660;53.288;14.666;2023-03-31T16:29:32;5.82;;;5.32;;
76733;SDS011;65660;53.288;14.666;2023-03-31T16:34:33;4.38;;;3.00;;
76733;SDS011;65660;53.288;14.666;2023-03-31T16:39:34;3.85;;;2.20;;
76733;SDS011;65660;53.288;14.666;2023-03-31T16:44:34;2.30;;;2.10;;
76733;SDS011;65660;53.288;14.666;2023-03-31T16:49:35;3.08;;;2.20;;
76733;SDS011;65660;53.288;14.666;2023-03-31T16:54:36;2.63;;;2.40;;
76733;SDS011;65660;53.288;14.666;2023-03-31T16:59:37;2.70;;;2.50;;
76733;SDS011;65660;53.288;14.666;2023-03-31T17:04:37;2.63;;;2.43;;
76733;SDS011;65660;53.288;14.666;2023-03-31T17:09:39;3.37;;;2.53;;
76733;SDS011;65660;53.288;14.666;2023-03-31T17:14:40;4.00;;;3.60;;
76733;SDS011;65660;53.288;14.666;2023-03-31T17:19:41;3.57;;;3.27;;
76733;SDS011;65660;53.288;14.666;2023-03-31T17:24:42;3.90;;;3.50;;
76733;SDS011;65660;53.288;14.666;2023-03-31T17:29:43;5.03;;;3.77;;
76733;SDS011;65660;53.288;14.666;2023-03-31T17:34:44;4.70;;;3.73;;
76733;SDS011;65660;53.288;14.666;2023-03-31T17:39:50;4.73;;;4.10;;
76733;SDS011;65660;53.288;14.666;2023-03-31T17:44:53;5.00;;;4.50;;
76733;SDS011;65660;53.288;14.666;2023-03-31T17:49:56;5.27;;;4.67;;
76733;SDS011;65660;53.288;14.666;2023-03-31T17:54:58;5.20;;;4.13;;
76733;SDS011;65660;53.288;14.666;2023-03-31T17:59:59;6.93;;;4.50;;
76733;SDS011;65660;53.288;14.666;2023-03-31T18:05:00;5.77;;;4.60;;
76733;SDS011;65660;53.288;14.666;2023-03-31T18:10:01;6.70;;;4.93;;
76733;SDS011;65660;53.288;14.666;2023-03-31T18:15:03;6.30;;;4.93;;
76733;SDS011;65660;53.288;14.666;2023-03-31T18:20:05;6.20;;;4.57;;
76733;SDS011;65660;53.288;14.666;2023-03-31T18:25:06;5.93;;;4.30;;
76733;SDS011;65660;53.288;14.666;2023-03-31T18:30:08;9.13;;;6.00;;
76733;SDS011;65660;53.288;14.666;2023-03-31T18:35:09;7.27;;;5.30;;
76733;SDS011;65660;53.288;14.666;2023-03-31T18:40:10;9.17;;;6.50;;
76733;SDS011;65660;53.288;14.666;2023-03-31T18:45:12;7.77;;;5.30;;
76733;SDS011;65660;53.288;14.666;2023-03-31T18:50:12;8.13;;;6.40;;
76733;SDS011;65660;53.288;14.666;2023-03-31T18:55:13;7.10;;;5.77;;
76733;SDS011;65660;53.288;14.666;2023-03-31T19:00:14;8.17;;;7.13;;
76733;SDS011;65660;53.288;14.666;2023-03-31T19:05:15;10.53;;;7.10;;
76733;SDS011;65660;53.288;14.666;2023-03-31T19:10:16;8.67;;;6.00;;
76733;SDS011;65660;53.288;14.666;2023-03-31T19:15:17;6.90;;;5.50;;
76733;SDS011;65660;53.288;14.666;2023-03-31T19:20:19;8.43;;;5.77;;
76733;SDS011;65660;53.288;14.666;2023-03-31T19:25:21;8.50;;;5.80;;
76733;SDS011;65660;53.288;14.666;2023-03-31T19:30:22;7.53;;;5.50;;
76733;SDS011;65660;53.288;14.666;2023-03-31T19:35:23;8.87;;;5.73;;
76733;SDS011;65660;53.288;14.666;2023-03-31T19:40:24;8.57;;;6.47;;
76733;SDS011;65660;53.288;14.666;2023-03-31T19:45:24;7.23;;;5.40;;
76733;SDS011;65660;53.288;14.666;2023-03-31T19:50:25;8.23;;;6.23;;
76733;SDS011;65660;53.288;14.666;2023-03-31T19:55:26;10.03;;;6.00;;
76733;SDS011;65660;53.288;14.666;2023-03-31T20:00:27;10.67;;;6.33;;
76733;SDS011;65660;53.288;14.666;2023-03-31T20:05:29;9.27;;;6.27;;
76733;SDS011;65660;53.288;14.666;2023-03-31T20:10:31;10.43;;;6.73;;
76733;SDS011;65660;53.288;14.666;2023-03-31T20:15:32;7.50;;;5.90;;
76733;SDS011;65660;53.288;14.666;2023-03-31T20:20:33;11.00;;;7.33;;
76733;SDS011;65660;53.288;14.666;2023-03-31T20:25:34;9.67;;;7.23;;
76733;SDS011;65660;53.288;14.666;2023-03-31T20:30:36;11.50;;;8.10;;
76733;SDS011;65660;53.288;14.666;2023-03-31T20:35:37;12.93;;;8.37;;
76733;SDS011;65660;53.288;14.666;2023-03-31T20:40:38;17.33;;;10.30;;
76733;SDS011;65660;53.288;14.666;2023-03-31T20:45:38;16.13;;;8.97;;
76733;SDS011;65660;53.288;14.666;2023-03-31T20:50:39;13.20;;;8.43;;
76733;SDS011;65660;53.288;14.666;2023-03-31T20:55:40;16.07;;;10.20;;
76733;SDS011;65660;53.288;14.666;2023-03-31T21:00:41;17.50;;;10.10;;
76733;SDS011;65660;53.288;14.666;2023-03-31T21:05:42;15.47;;;9.67;;
76733;SDS011;65660;53.288;14.666;2023-03-31T21:10:44;12.80;;;9.10;;
76733;SDS011;65660;53.288;14.666;2023-03-31T21:15:46;13.97;;;8.50;;
76733;SDS011;65660;53.288;14.666;2023-03-31T21:20:49;11.47;;;7.00;;
76733;SDS011;65660;53.288;14.666;2023-03-31T21:25:54;9.77;;;6.10;;
76733;SDS011;65660;53.288;14.666;2023-03-31T21:31:02;8.77;;;6.10;;
76733;SDS011;65660;53.288;14.666;2023-03-31T21:36:11;10.03;;;6.40;;
76733;SDS011;65660;53.288;14.666;2023-03-31T21:41:15;9.40;;;6.07;;
76733;SDS011;65660;53.288;14.666;2023-03-31T21:46:34;8.17;;;6.33;;
76733;SDS011;65660;53.288;14.666;2023-03-31T21:51:34;5.00;;;4.43;;
76733;SDS011;65660;53.288;14.666;2023-03-31T21:56:36;7.73;;;4.47;;
76733;SDS011;65660;53.288;14.666;2023-03-31T22:01:36;5.97;;;4.23;;
76733;SDS011;65660;53.288;14.666;2023-03-31T22:06:37;5.07;;;4.37;;
76733;SDS011;65660;53.288;14.666;2023-03-31T22:11:38;4.43;;;4.03;;
76733;SDS011;65660;53.288;14.666;2023-03-31T22:16:38;7.37;;;4.60;;
76733;SDS011;65660;53.288;14.666;2023-03-31T22:21:39;5.00;;;4.20;;
76733;SDS011;65660;53.288;14.666;2023-03-31T22:26:40;6.37;;;4.23;;
76733;SDS011;65660;53.288;14.666;2023-03-31T22:31:41;5.63;;;4.50;;
76733;SDS011;65660;53.288;14.666;2023-03-31T22:36:41;5.17;;;4.40;;
76733;SDS011;65660;53.288;14.666;2023-03-31T22:41:42;5.67;;;4.23;;
76733;SDS011;65660;53.288;14.666;2023-03-31T22:46:44;5.37;;;4.07;;
76733;SDS011;65660;53.288;14.666;2023-03-31T22:51:44;4.80;;;4.30;;
76733;SDS011;65660;53.288;14.666;2023-03-31T22:56:45;4.60;;;3.83;;
76733;SDS011;65660;53.288;14.666;2023-03-31T23:01:49;5.20;;;4.17;;
76733;SDS011;65660;53.288;14.666;2023-03-31T23:06:50;5.73;;;4.40;;
76733;SDS011;65660;53.288;14.666;2023-03-31T23:11:51;5.47;;;4.57;;
76733;SDS011;65660;53.288;14.666;2023-03-31T23:16:51;6.43;;;4.30;;
76733;SDS011;65660;53.288;14.666;2023-03-31T23:21:52;8.03;;;5.07;;
76733;SDS011;65660;53.288;14.666;2023-03-31T23:26:53;7.43;;;4.77;;
76733;SDS011;65660;53.288;14.666;2023-03-31T23:31:54;8.40;;;5.47;;
76733;SDS011;65660;53.288;14.666;2023-03-31T23:36:54;7.37;;;4.70;;
76733;SDS011;65660;53.288;14.666;2023-03-31T23:41:55;5.23;;;4.43;;
76733;SDS011;65660;53.288;14.666;2023-03-31T23:46:56;4.90;;;4.17;;
76733;SDS011;65660;53.288;14.666;2023-03-31T23:51:56;4.77;;;3.77;;
76733;SDS011;65660;53.288;14.666;2023-03-31T23:56:57;5.17;;;3.60;;
